Terminal Aerodrome Forecast
Issued by NWS

Home | Current Version | Previous Version | Text Only | Print | Product List | Glossary On
Versions: 1 2 3 4 5 6 7 8 9 10 11 12 13
000
FTUS43 KIND 281700
TAFBMG
TAF
KBMG 281720Z 2818/2918 35005KT P6SM OVC015
     FM290100 35002KT P6SM SCT025 BKN250
     FM291400 06005KT P6SM BKN200=

USA.gov is the U.S. government's official web portal to all federal, state and local government web resources and services.